Time;durP1;ratioP1;P1;durP2;ratioP2;P2;SDS_P1;SDS_P2;PMS_P1;PMS_P2;Temp;Humidity;BMP_temperature;BMP_pressure;BME280_temperature;BME280_humidity;BME280_pressure;Samples;Min_cycle;Max_cycle;Signal;HPM_P1;HPM_P2
2021/06/13 16:34:27;;;;;;;6.20;2.90;;;;;;;19.11;92.31;100722.77;1845076;76;28831;-74
2021/06/13 16:37:02;;;;;;;9.18;2.75;;;;;;;19.10;92.17;100730.95;1815377;78;21182;-73
2021/06/13 16:39:34;;;;;;;7.65;2.47;;;;;;;19.13;91.98;100736.78;1738245;81;21389;-71
2021/06/13 16:42:07;;;;;;;10.00;2.80;;;;;;;19.23;91.83;100746.45;1806051;78;21722;-76
2021/06/13 16:44:40;;;;;;;6.10;2.37;;;;;;;19.35;91.69;100751.52;1805847;79;21675;-69
2021/06/13 16:47:12;;;;;;;7.30;3.10;;;;;;;19.45;91.37;100754.11;1806001;78;21671;-71
2021/06/13 16:49:45;;;;;;;6.70;2.23;;;;;;;19.58;91.01;100766.72;1806117;79;21305;-72
2021/06/13 16:52:18;;;;;;;9.33;2.35;;;;;;;19.73;90.63;100770.59;1807422;78;21987;-70
2021/06/13 16:54:51;;;;;;;10.25;2.55;;;;;;;19.90;90.12;100768.48;1806055;79;21266;-67
2021/06/13 16:57:24;;;;;;;8.00;3.10;;;;;;;20.01;89.19;100759.47;1805673;79;21308;-73
2021/06/13 16:59:57;;;;;;;14.65;3.15;;;;;;;20.05;88.31;100762.47;1806059;79;21392;-72
2021/06/13 17:02:30;;;;;;;5.22;2.37;;;;;;;20.01;87.79;100765.66;1806308;79;21328;-69
2021/06/13 17:05:02;;;;;;;6.90;2.40;;;;;;;19.93;87.60;100771.48;1805659;78;21249;-70
2021/06/13 17:07:35;;;;;;;10.97;2.57;;;;;;;19.84;87.10;100770.61;1814695;77;21336;-71
2021/06/13 17:10:08;;;;;;;8.75;3.12;;;;;;;19.79;87.14;100767.06;1797901;78;21340;-71
2021/06/13 17:12:41;;;;;;;9.30;3.60;;;;;;;19.79;86.91;100769.31;1838655;78;21293;-71
2021/06/13 17:15:16;;;;;;;10.20;2.70;;;;;;;19.79;86.67;100774.11;1767744;81;21838;-72
2021/06/13 17:17:49;;;;;;;7.03;2.62;;;;;;;19.78;86.57;100782.31;1838521;78;21372;-72
2021/06/13 17:20:23;;;;;;;4.83;2.30;;;;;;;19.76;86.43;100780.40;1758479;81;21368;-73
2021/06/13 17:25:41;;;;;;;4.67;3.90;;;;;;;19.71;86.05;100782.77;1804138;78;21316;-69
2021/06/13 17:28:08;;;;;;;6.80;2.58;;;;;;;19.71;85.89;100788.97;1805876;79;21348;-73
2021/06/13 17:30:40;;;;;;;6.92;1.45;;;;;;;19.66;85.73;100787.68;1805809;79;21175;-72
2021/06/13 17:33:15;;;;;;;6.60;1.75;;;;;;;19.64;85.77;100785.77;1806114;79;21285;-73
2021/06/13 17:36:17;;;;;;;3.12;2.02;;;;;;;19.64;85.59;100797.85;1806058;79;21325;-71
2021/06/13 17:38:51;;;;;;;;;;;;;;;19.62;85.27;100794.53;1822612;78;21816;-75
2021/06/13 17:41:48;;;;;;;5.65;1.52;;;;;;;19.54;84.98;100790.22;1838947;78;20183;-74
2021/06/13 17:44:21;;;;;;;2.50;1.75;;;;;;;19.54;84.90;100793.04;1800542;79;21842;-73
2021/06/13 17:46:58;;;;;;;8.88;2.27;;;;;;;19.52;84.71;100798.17;1805645;78;21695;-78
2021/06/13 17:49:32;;;;;;;4.03;1.45;;;;;;;19.48;84.74;100795.72;1807610;78;21317;-75
2021/06/13 17:52:06;;;;;;;8.90;2.15;;;;;;;19.45;84.84;100799.18;1806175;79;21277;-79
2021/06/13 17:54:39;;;;;;;6.62;1.80;;;;;;;19.45;84.86;100797.77;1805666;79;21790;-75
2021/06/13 17:57:11;;;;;;;6.60;2.20;;;;;;;19.44;85.08;100804.56;1805842;79;21870;-75
2021/06/13 17:59:44;;;;;;;11.10;2.73;;;;;;;19.41;84.78;100812.22;1805977;79;21332;-76
2021/06/13 18:02:17;;;;;;;6.80;1.90;;;;;;;19.40;84.74;100820.42;1805749;79;21617;-76
2021/06/13 18:04:49;;;;;;;4.37;1.53;;;;;;;19.30;85.04;100814.44;1805872;79;21332;-75
2021/06/13 18:07:22;;;;;;;5.50;1.67;;;;;;;19.30;85.04;100814.44;1805594;79;22051;-75
2021/06/13 18:09:55;;;;;;;2.13;1.00;;;;;;;19.28;85.24;100814.48;1805749;79;21336;-76
2021/06/13 18:12:32;;;;;;;4.42;1.07;;;;;;;19.21;85.03;100816.31;1805508;79;21328;-74
2021/06/13 18:15:07;;;;;;;2.87;1.62;;;;;;;19.20;85.07;100828.73;1805668;79;21730;-76
2021/06/13 18:17:42;;;;;;;4.42;1.25;;;;;;;19.18;85.26;100830.16;1805728;79;21174;-74
2021/06/13 18:20:16;;;;;;;15.88;12.05;;;;;;;19.13;85.00;100834.52;1805447;79;21827;-75
2021/06/13 18:22:48;;;;;;;12.95;5.40;;;;;;;19.08;85.15;100838.84;1805820;79;21333;-74
2021/06/13 18:25:21;;;;;;;2.77;1.50;;;;;;;19.03;85.20;100843.16;1805919;79;21815;-74
2021/06/13 18:27:54;;;;;;;7.72;1.40;;;;;;;18.96;85.04;100843.56;1805554;79;21380;-75
2021/06/13 18:30:28;;;;;;;2.80;1.20;;;;;;;18.88;84.58;100844.85;1805426;79;21341;-75
2021/06/13 18:33:00;;;;;;;5.65;1.20;;;;;;;18.81;84.85;100852.88;1813082;78;21364;-75
2021/06/13 18:35:34;;;;;;;7.15;1.20;;;;;;;18.76;84.93;100848.75;1833306;77;21885;-73
2021/06/13 18:38:07;;;;;;;5.33;1.30;;;;;;;18.77;85.24;100851.85;1838512;78;21309;-75
2021/06/13 18:40:41;;;;;;;1.70;1.20;;;;;;;18.78;85.62;100859.96;1767078;81;21337;-74
2021/06/13 18:43:14;;;;;;;5.97;1.72;;;;;;;18.81;85.60;100860.77;1838760;77;21457;-73
2021/06/13 18:45:47;;;;;;;3.47;1.10;;;;;;;18.80;85.51;100858.25;1838144;78;21312;-76
2021/06/13 18:48:22;;;;;;;;;;;;;;;18.77;85.68;100866.73;1769374;81;21254;-76
2021/06/13 18:50:55;;;;;;;5.62;1.50;;;;;;;18.78;85.68;100871.22;1838338;78;20203;-80
2021/06/13 18:53:27;;;;;;;;;;;;;;;18.79;85.80;100867.84;1769616;81;21210;-74
2021/06/13 18:56:00;;;;;;;3.50;1.22;;;;;;;18.76;85.58;100866.48;1837919;78;20179;-75
2021/06/13 18:58:35;;;;;;;2.35;1.40;;;;;;;18.70;85.63;100857.87;1766824;81;21171;-77
2021/06/13 19:01:07;;;;;;;2.62;1.17;;;;;;;18.63;85.64;100852.38;1838274;77;21171;-75
2021/06/13 19:03:42;;;;;;;5.83;1.40;;;;;;;18.55;85.97;100850.30;1837264;78;21408;-77
2021/06/13 19:06:15;;;;;;;1.95;1.07;;;;;;;18.46;86.16;100851.57;1767033;81;21869;-78
2021/06/13 19:08:48;;;;;;;3.47;1.40;;;;;;;18.40;86.46;100849.98;1839349;77;21285;-76
2021/06/13 19:11:21;;;;;;;36.80;28.73;;;;;;;18.35;86.67;100850.67;1766850;81;21186;-77
2021/06/13 19:13:54;;;;;;;4.58;1.30;;;;;;;18.31;86.99;100844.83;1838501;77;21326;-78
2021/06/13 19:16:26;;;;;;;3.72;1.17;;;;;;;18.25;87.48;100846.58;1766892;81;21201;-76
2021/06/13 19:19:00;;;;;;;5.55;1.35;;;;;;;18.20;87.90;100834.02;1838432;77;21333;-77
2021/06/13 19:21:33;;;;;;;6.28;2.00;;;;;;;18.19;88.26;100822.51;1763036;81;21460;-80
2021/06/13 19:24:06;;;;;;;6.92;2.35;;;;;;;18.18;88.66;100820.84;1741652;81;21397;-74
2021/06/13 19:26:39;;;;;;;2.90;2.08;;;;;;;18.18;88.78;100816.07;1735286;82;21834;-77
2021/06/13 19:29:12;;;;;;;4.45;2.72;;;;;;;18.19;89.02;100812.67;1734287;82;21196;-75
2021/06/13 19:31:45;;;;;;;6.45;3.10;;;;;;;18.23;89.23;100804.70;1805245;78;21361;-75
2021/06/13 19:34:17;;;;;;;10.85;4.67;;;;;;;18.25;89.40;100801.59;1805628;78;21362;-77
2021/06/13 19:36:50;;;;;;;4.73;2.00;;;;;;;18.24;89.62;100795.72;1805369;78;21367;-79
2021/06/13 19:39:24;;;;;;;1.55;0.93;;;;;;;18.21;89.37;100800.53;1804865;79;21408;-74
2021/06/13 19:42:00;;;;;;;2.17;1.10;;;;;;;18.17;89.63;100789.08;1805243;79;21308;-73
2021/06/13 19:44:32;;;;;;;2.87;1.15;;;;;;;18.12;89.75;100799.59;1805177;79;21380;-74
2021/06/13 19:47:05;;;;;;;3.20;1.10;;;;;;;18.09;90.24;100803.00;1805344;79;21651;-73
2021/06/13 19:49:39;;;;;;;2.55;1.10;;;;;;;18.06;90.41;100802.22;1805176;79;21363;-74
2021/06/13 19:52:12;;;;;;;1.95;1.12;;;;;;;18.07;90.73;100794.05;1805326;79;21304;-75
2021/06/13 19:54:44;;;;;;;1.35;1.20;;;;;;;18.07;90.71;100793.49;1805257;78;21359;-77
2021/06/13 19:57:16;;;;;;;3.40;1.70;;;;;;;18.07;90.91;100791.23;1780052;79;21742;-75
2021/06/13 19:59:50;;;;;;;3.50;1.60;;;;;;;18.03;90.79;100782.59;1805194;79;21371;-71
2021/06/13 20:02:22;;;;;;;3.55;2.02;;;;;;;18.01;90.95;100784.89;1805303;79;21179;-76
2021/06/13 20:04:55;;;;;;;4.08;2.15;;;;;;;18.00;91.14;100782.37;1805269;78;21162;-74
2021/06/13 20:07:28;;;;;;;2.45;2.00;;;;;;;17.97;91.25;100784.38;1805368;79;21190;-74
2021/06/13 20:10:00;;;;;;;4.87;2.37;;;;;;;17.97;91.18;100785.78;1804957;79;21313;-76
2021/06/13 20:12:33;;;;;;;6.20;2.12;;;;;;;17.95;90.96;100778.23;1805135;79;21205;-74
2021/06/13 20:15:07;;;;;;;8.90;2.10;;;;;;;17.94;91.15;100776.02;1805703;79;21312;-74
2021/06/13 20:17:43;;;;;;;5.08;2.12;;;;;;;17.94;91.19;100776.02;1805037;79;21192;-72
2021/06/13 20:20:17;;;;;;;2.58;2.10;;;;;;;17.97;91.43;100767.52;1805141;79;21360;-73
2021/06/13 20:22:49;;;;;;;4.85;1.60;;;;;;;18.02;91.55;100761.25;1805156;78;21186;-76
2021/06/13 20:25:28;;;;;;;3.60;1.85;;;;;;;18.08;91.67;100766.20;1804972;79;21316;-74
2021/06/13 20:28:01;;;;;;;1.98;1.20;;;;;;;18.13;91.64;100766.12;1805091;79;21333;-74
2021/06/13 20:30:36;;;;;;;2.30;1.80;;;;;;;18.19;91.44;100769.09;1805124;79;21158;-74
2021/06/13 20:33:12;;;;;;;6.67;1.45;;;;;;;18.22;91.26;100769.31;1805260;79;21320;-73
2021/06/13 20:35:44;;;;;;;5.70;1.55;;;;;;;18.26;91.11;100766.16;1805054;79;21794;-74
2021/06/13 20:38:18;;;;;;;3.52;1.22;;;;;;;18.29;91.01;100773.14;1803279;78;21190;-75
2021/06/13 20:40:50;;;;;;;;;;;;;;;18.29;90.68;100768.33;1805325;79;21181;-73
2021/06/13 20:43:22;;;;;;;5.67;1.32;;;;;;;18.31;90.23;100769.47;1802797;79;20563;-72
2021/06/13 20:46:01;;;;;;;3.75;1.40;;;;;;;18.24;89.87;100758.58;1804406;79;21809;-75
2021/06/13 20:48:29;;;;;;;2.87;1.02;;;;;;;18.18;89.91;100754.78;1805085;78;21371;-72
2021/06/13 20:51:02;;;;;;;2.30;1.30;;;;;;;18.14;89.86;100760.20;1805264;79;21834;-73
2021/06/13 20:53:35;;;;;;;3.27;1.10;;;;;;;18.10;89.89;100752.70;1805093;79;21217;-71
2021/06/13 20:56:08;;;;;;;1.35;1.05;;;;;;;18.04;90.02;100748.31;1805274;79;21859;-75
2021/06/13 20:58:42;;;;;;;2.65;1.20;;;;;;;18.00;89.87;100745.28;1805033;79;21186;-71
2021/06/13 21:01:17;;;;;;;2.70;1.30;;;;;;;17.97;90.24;100745.03;1805332;79;21328;-74
2021/06/13 21:03:50;;;;;;;1.40;1.30;;;;;;;18.00;90.30;100744.44;1805148;79;21296;-76
2021/06/13 21:06:22;;;;;;;4.53;1.07;;;;;;;17.99;90.09;100742.77;1805593;79;21313;-74
2021/06/13 21:08:56;;;;;;;2.22;1.17;;;;;;;17.99;90.06;100737.16;1805133;79;21146;-77
2021/06/13 21:11:28;;;;;;;1.90;1.30;;;;;;;18.04;90.11;100744.09;1805590;79;21676;-74
2021/06/13 21:14:02;;;;;;;3.72;1.10;;;;;;;18.09;90.17;100745.37;1805048;78;21316;-74
2021/06/13 21:16:34;;;;;;;2.58;1.35;;;;;;;18.09;89.90;100745.37;1803865;79;21237;-73
2021/06/13 21:19:07;;;;;;;1.30;1.20;;;;;;;18.16;89.93;100745.84;1805318;79;21376;-73
2021/06/13 21:21:41;;;;;;;1.90;0.97;;;;;;;18.22;89.55;100751.04;1805190;79;21187;-76
2021/06/13 21:24:13;;;;;;;;;;;;;;;18.21;89.27;100755.56;1808078;79;21317;-72
2021/06/13 21:26:47;;;;;;;1.62;1.30;;;;;;;18.23;89.26;100766.76;1805144;79;20288;-74
2021/06/13 21:29:19;;;;;;;6.45;1.50;;;;;;;18.24;89.17;100768.42;1805185;79;21312;-74
2021/06/13 21:31:52;;;;;;;4.12;1.10;;;;;;;18.29;89.26;100771.73;1805213;79;21316;-73
2021/06/13 21:34:24;;;;;;;2.52;1.00;;;;;;;18.34;89.06;100777.30;1805007;79;21194;-76
2021/06/13 21:36:57;;;;;;;3.02;1.30;;;;;;;18.34;88.88;100780.11;1805356;79;21229;-72
2021/06/13 21:39:29;;;;;;;4.83;1.52;;;;;;;18.35;88.77;100776.15;1805083;79;21360;-72
2021/06/13 21:42:02;;;;;;;5.67;1.47;;;;;;;18.35;88.76;100772.75;1805723;79;21316;-73
2021/06/13 21:44:35;;;;;;;7.45;1.47;;;;;;;18.34;88.64;100761.84;1805371;79;21822;-72
2021/06/13 21:47:08;;;;;;;4.10;1.60;;;;;;;18.29;88.37;100766.11;1800442;80;21175;-74
2021/06/13 21:49:40;;;;;;;3.98;2.05;;;;;;;18.21;88.30;100761.17;1800309;80;21182;-73
2021/06/13 21:52:13;;;;;;;5.47;1.57;;;;;;;18.15;88.37;100752.58;1803490;79;21355;-71
2021/06/13 21:54:46;;;;;;;4.47;1.62;;;;;;;18.07;88.49;100745.71;1805452;79;21305;-74
2021/06/13 21:57:20;;;;;;;2.83;1.33;;;;;;;18.04;88.74;100749.13;1803688;79;21348;-77
2021/06/13 21:59:52;;;;;;;1.42;1.17;;;;;;;17.97;88.68;100742.23;1805091;79;21481;-73
2021/06/13 22:02:25;;;;;;;2.12;1.27;;;;;;;17.89;88.81;100738.73;1805229;79;21363;-71
2021/06/13 22:04:57;;;;;;;2.92;1.60;;;;;;;17.85;89.17;100740.50;1805406;79;21332;-74
2021/06/13 22:07:30;;;;;;;5.35;1.80;;;;;;;17.79;89.00;100741.73;1805207;79;21222;-71
2021/06/13 22:10:02;;;;;;;1.52;1.37;;;;;;;17.76;89.26;100746.55;1805211;79;21743;-72
2021/06/13 22:12:36;;;;;;;1.65;1.40;;;;;;;17.72;89.17;100746.88;1801129;79;21262;-74
2021/06/13 22:15:10;;;;;;;1.80;1.40;;;;;;;17.70;89.50;100739.34;1805124;79;22141;-73
2021/06/13 22:17:43;;;;;;;2.45;1.80;;;;;;;17.68;89.37;100743.03;1805137;79;21325;-72
2021/06/13 22:20:15;;;;;;;4.05;1.80;;;;;;;17.71;89.46;100743.81;1805108;79;21234;-74
2021/06/13 22:22:48;;;;;;;3.58;1.50;;;;;;;17.71;89.45;100749.43;1805193;79;21174;-73
2021/06/13 22:25:20;;;;;;;4.00;2.10;;;;;;;17.71;89.50;100746.63;1805675;79;21348;-74
2021/06/13 22:27:53;;;;;;;2.33;1.93;;;;;;;17.73;89.46;100751.39;1805443;79;21163;-72
2021/06/13 22:30:25;;;;;;;4.55;2.25;;;;;;;17.72;89.31;100735.09;1805157;79;21671;-72
2021/06/13 22:32:58;;;;;;;2.77;2.17;;;;;;;17.74;89.39;100737.59;1800430;80;21182;-72
2021/06/13 22:35:30;;;;;;;3.27;1.70;;;;;;;17.74;89.05;100736.20;1800345;80;21353;-72
2021/06/13 22:38:03;;;;;;;6.05;1.60;;;;;;;17.72;88.94;100739.86;1803362;79;21194;-71
2021/06/13 22:40:37;;;;;;;5.62;1.75;;;;;;;17.75;89.00;100744.88;1795680;79;21333;-72
2021/06/13 22:43:09;;;;;;;3.33;2.10;;;;;;;17.81;88.93;100738.03;1792572;80;21349;-71
2021/06/13 22:45:44;;;;;;;2.58;2.10;;;;;;;17.83;88.76;100737.14;1792268;80;21416;-74
2021/06/13 22:48:18;;;;;;;3.08;1.82;;;;;;;17.81;88.58;100742.25;1783387;80;21226;-73
2021/06/13 22:50:52;;;;;;;3.30;1.80;;;;;;;17.77;88.56;100742.03;1793175;78;21322;-71
2021/06/13 22:53:24;;;;;;;6.12;2.05;;;;;;;17.73;88.50;100740.97;1802971;79;21814;-72
2021/06/13 22:55:57;;;;;;;3.55;1.90;;;;;;;17.73;88.48;100748.58;1802616;78;21811;-71
2021/06/13 22:58:29;;;;;;;1.55;1.40;;;;;;;17.75;88.65;100751.91;1803251;79;21333;-73
2021/06/13 23:01:02;;;;;;;2.72;1.70;;;;;;;17.75;88.66;100752.72;1794212;79;21329;-75
2021/06/13 23:03:35;;;;;;;5.07;1.77;;;;;;;17.80;88.65;100749.02;1792522;80;21321;-73
2021/06/13 23:06:07;;;;;;;4.63;2.40;;;;;;;17.85;88.69;100752.56;1792557;80;21749;-72
2021/06/13 23:08:40;;;;;;;2.27;1.70;;;;;;;17.81;88.26;100744.47;1775076;79;21361;-73
2021/06/13 23:11:13;;;;;;;2.33;1.82;;;;;;;17.71;87.83;100745.22;1804670;79;21309;-73
2021/06/13 23:13:45;;;;;;;7.28;2.22;;;;;;;17.72;88.10;100743.52;1804761;79;21325;-73
2021/06/13 23:16:18;;;;;;;6.20;2.00;;;;;;;17.73;88.24;100747.98;1804601;79;21309;-72
2021/06/13 23:18:51;;;;;;;4.10;2.00;;;;;;;17.72;88.26;100742.11;1802818;79;21333;-72
2021/06/13 23:21:24;;;;;;;4.65;2.35;;;;;;;17.69;88.24;100739.08;1803804;79;21385;-73
2021/06/13 23:23:57;;;;;;;3.30;1.70;;;;;;;17.57;87.96;100737.31;1802949;79;21309;-73
2021/06/13 23:26:31;;;;;;;5.50;3.02;;;;;;;17.48;88.21;100736.33;1802666;79;21734;-72
2021/06/13 23:29:04;;;;;;;4.50;2.20;;;;;;;17.43;88.49;100744.86;1802891;79;21214;-76
2021/06/13 23:31:37;;;;;;;4.00;2.05;;;;;;;17.42;88.46;100747.37;1802810;79;21261;-73
2021/06/13 23:34:09;;;;;;;2.53;1.77;;;;;;;17.41;88.42;100749.36;1803369;79;21171;-73
2021/06/13 23:36:42;;;;;;;7.35;2.00;;;;;;;17.38;88.41;100748.55;1802595;79;21144;-72
2021/06/13 23:39:14;;;;;;;2.52;1.50;;;;;;;17.36;88.43;100751.36;1802792;79;21711;-73
2021/06/13 23:41:47;;;;;;;5.78;1.80;;;;;;;17.35;88.48;100751.09;1803174;79;21384;-73
2021/06/13 23:44:20;;;;;;;5.13;2.30;;;;;;;17.34;88.46;100751.69;1803745;79;21783;-72
2021/06/13 23:46:55;;;;;;;3.62;1.82;;;;;;;17.37;88.65;100751.66;1803436;79;21317;-73
2021/06/13 23:49:27;;;;;;;8.13;1.85;;;;;;;17.36;88.50;100745.75;1803420;79;21404;-73
2021/06/13 23:52:00;;;;;;;2.52;1.80;;;;;;;17.35;88.59;100752.50;1803471;79;21183;-72
2021/06/13 23:54:32;;;;;;;3.15;2.02;;;;;;;17.32;88.55;100751.72;1803446;79;21266;-73
2021/06/13 23:57:06;;;;;;;3.63;1.77;;;;;;;17.25;88.36;100750.69;1804366;79;21179;-72
2021/06/13 23:59:39;;;;;;;2.98;1.77;;;;;;;17.20;88.55;100757.77;1804979;79;21178;-72
